createdAt,value
2019-05-29T00:00:21.166Z,101489.88
2019-05-29T00:03:25.028Z,101491.61
2019-05-29T00:06:28.853Z,101495.14
2019-05-29T00:09:32.804Z,101496.95
2019-05-29T00:12:36.622Z,101499.62
2019-05-29T00:15:40.444Z,101503.17
2019-05-29T00:18:44.322Z,101511.09
2019-05-29T00:21:48.185Z,101520.78
2019-05-29T00:24:52.053Z,101518.14
2019-05-29T00:27:55.864Z,101520.34
2019-05-29T00:30:59.737Z,101524.33
2019-05-29T00:34:03.572Z,101524.33
2019-05-29T00:37:08.526Z,101526.98
2019-05-29T00:40:13.341Z,101525.64
2019-05-29T00:43:17.619Z,101533.12
2019-05-29T00:46:21.519Z,101533.14
2019-05-29T00:49:25.440Z,101533.57
2019-05-29T00:52:29.479Z,101533.12
2019-05-29T00:55:33.302Z,101541.48
2019-05-29T00:58:37.169Z,101539.30
2019-05-29T01:01:41.126Z,101550.30
2019-05-29T01:04:44.979Z,101544.12
2019-05-29T01:07:48.831Z,101549.41
2019-05-29T01:10:52.730Z,101552.50
2019-05-29T01:13:56.592Z,101565.67
2019-05-29T01:17:00.496Z,101565.67
2019-05-29T01:20:06.088Z,101568.30
2019-05-29T01:23:09.990Z,101556.00
2019-05-29T01:26:14.476Z,101555.97
2019-05-29T01:29:19.449Z,101562.13
2019-05-29T01:32:23.849Z,101558.62
2019-05-29T01:35:27.774Z,101561.25
2019-05-29T01:38:31.767Z,101565.23
2019-05-29T01:41:35.671Z,101569.64
2019-05-29T01:44:39.596Z,101569.19
2019-05-29T01:47:43.428Z,101574.03
2019-05-29T01:50:47.322Z,101581.95
2019-05-29T01:53:51.195Z,101584.16
2019-05-29T01:56:55.032Z,101585.03
2019-05-29T01:59:58.872Z,101590.75
2019-05-29T02:03:02.723Z,101597.80
2019-05-29T02:06:06.649Z,101594.27
2019-05-29T02:09:10.563Z,101601.75
2019-05-29T02:12:14.508Z,101603.50
2019-05-29T02:15:26.039Z,101605.70
2019-05-29T02:18:25.082Z,101605.67
2019-05-29T02:21:29.015Z,101610.11
2019-05-29T02:24:32.877Z,101608.33
2019-05-29T02:27:36.863Z,101611.84
2019-05-29T02:30:40.814Z,101610.09
2019-05-29T02:33:44.735Z,101612.31
2019-05-29T02:36:48.599Z,101614.94
2019-05-29T02:39:52.521Z,101613.17
2019-05-29T02:42:56.520Z,101620.22
2019-05-29T02:46:00.510Z,101624.17
2019-05-29T02:49:04.433Z,101623.73
2019-05-29T02:52:08.248Z,101626.37
2019-05-29T02:55:12.237Z,101630.77
2019-05-29T02:58:16.174Z,101634.73
2019-05-29T03:01:21.513Z,101633.86
2019-05-29T03:04:26.227Z,101638.67
2019-05-29T03:07:31.183Z,101645.30
2019-05-29T03:10:36.305Z,101644.84
2019-05-29T03:13:40.315Z,101640.89
2019-05-29T03:16:44.312Z,101647.50
2019-05-29T03:19:48.148Z,101659.38
2019-05-29T03:22:51.983Z,101651.45
2019-05-29T03:25:55.824Z,101659.38
2019-05-29T03:28:59.660Z,101664.63
2019-05-29T03:32:03.601Z,101671.24
2019-05-29T03:35:07.725Z,101673.86
2019-05-29T03:38:11.628Z,101673.00
2019-05-29T03:41:15.557Z,101675.61
2019-05-29T03:44:19.435Z,101678.27
2019-05-29T03:47:23.286Z,101680.03
2019-05-29T03:50:28.986Z,101684.41
2019-05-29T03:53:33.739Z,101689.27
2019-05-29T03:56:38.910Z,101690.14
2019-05-29T03:59:43.120Z,101689.69
2019-05-29T04:02:47.054Z,101694.98
2019-05-29T04:05:50.896Z,101698.52
2019-05-29T04:08:54.875Z,101703.34
2019-05-29T04:11:58.810Z,101705.55
2019-05-29T04:15:02.801Z,101709.06
2019-05-29T04:18:06.950Z,101713.06
2019-05-29T04:21:12.057Z,101721.83
2019-05-29T04:24:18.715Z,101729.77
2019-05-29T04:27:27.912Z,101732.87
2019-05-29T04:30:34.306Z,101742.54
2019-05-29T04:33:38.895Z,101747.84
2019-05-29T04:36:42.909Z,101751.80
2019-05-29T04:39:46.757Z,101759.30
2019-05-29T04:42:50.628Z,101763.25
2019-05-29T04:45:54.535Z,101766.77
2019-05-29T04:48:58.367Z,101772.48
2019-05-29T04:52:02.199Z,101775.58
2019-05-29T04:55:06.598Z,101777.75
2019-05-29T04:58:10.537Z,101782.59
2019-05-29T05:01:14.457Z,101790.97
2019-05-29T05:04:18.378Z,101791.84
2019-05-29T05:07:22.262Z,101802.00
2019-05-29T05:10:35.780Z,101801.51
2019-05-29T05:13:39.834Z,101805.92
2019-05-29T05:16:44.113Z,101803.25
2019-05-29T05:19:48.024Z,101802.27
2019-05-29T05:35:45.026Z,101817.05
2019-05-29T05:39:17.900Z,101820.58
2019-05-29T05:42:21.250Z,101824.48
2019-05-29T05:45:31.007Z,101834.63
2019-05-29T05:48:41.842Z,101827.13
2019-05-29T05:51:50.698Z,101838.92
2019-05-29T05:54:54.528Z,101839.30
2019-05-29T05:57:58.371Z,101848.88
2019-05-29T06:01:02.230Z,101846.10
2019-05-29T06:04:37.917Z,101852.77
2019-05-29T06:08:18.035Z,101853.50
2019-05-29T06:11:28.168Z,101854.39
2019-05-29T06:14:32.376Z,101861.73
2019-05-29T06:17:36.575Z,101864.47
2019-05-29T06:20:41.001Z,101864.68
2019-05-29T06:23:44.933Z,101865.28
2019-05-29T06:26:48.785Z,101864.81
2019-05-29T06:29:52.664Z,101874.71
2019-05-29T06:32:56.505Z,101877.23
2019-05-29T06:36:00.538Z,101880.26
2019-05-29T06:39:05.698Z,101879.79
2019-05-29T06:42:09.699Z,101880.65
2019-05-29T06:45:15.171Z,101888.75
2019-05-29T06:48:41.398Z,101884.47
2019-05-29T06:51:32.394Z,101888.33
2019-05-29T06:54:36.239Z,101897.89
2019-05-29T06:57:40.314Z,101894.37
2019-05-29T07:00:44.844Z,101894.05
2019-05-29T07:03:48.870Z,101897.08
2019-05-29T07:06:52.679Z,101895.16
2019-05-29T07:09:56.506Z,101903.56
2019-05-29T07:13:00.316Z,101909.98
2019-05-29T07:16:04.240Z,101917.36
2019-05-29T07:19:24.741Z,101914.70
2019-05-29T07:22:13.585Z,101925.41
2019-05-29T07:25:17.436Z,101928.73
2019-05-29T07:28:21.277Z,101939.06
2019-05-29T07:31:25.072Z,101934.27
2019-05-29T07:34:28.962Z,101937.38
2019-05-29T07:37:32.770Z,101938.72
2019-05-29T07:40:38.439Z,101935.52
2019-05-29T07:43:42.278Z,101937.12
2019-05-29T07:46:47.176Z,101946.62
2019-05-29T07:49:51.665Z,101945.41
2019-05-29T07:52:55.613Z,101943.62
2019-05-29T07:55:59.476Z,101952.34
2019-05-29T07:59:03.776Z,101950.51
2019-05-29T08:02:07.751Z,101947.95
2019-05-29T08:05:12.781Z,101936.38
2019-05-29T08:08:16.634Z,101939.88
2019-05-29T08:11:20.499Z,101942.83
2019-05-29T08:14:24.314Z,101947.74
2019-05-29T08:17:28.198Z,101951.40
2019-05-29T08:20:32.093Z,101949.33
2019-05-29T08:23:35.956Z,101949.38
2019-05-29T08:26:40.763Z,101954.69
2019-05-29T08:29:44.849Z,101950.75
2019-05-29T08:32:49.236Z,101956.16
2019-05-29T08:35:59.957Z,101959.43
2019-05-29T08:38:58.755Z,101961.19
2019-05-29T08:42:21.801Z,101969.67
2019-05-29T08:45:08.974Z,101965.61
2019-05-29T08:48:12.895Z,101978.85
2019-05-29T08:51:16.710Z,101981.31
2019-05-29T08:54:23.995Z,101986.99
2019-05-29T08:57:26.097Z,101996.13
2019-05-29T09:00:30.078Z,101985.66
2019-05-29T09:03:33.888Z,101991.00
2019-05-29T09:06:37.712Z,101989.98
2019-05-29T09:09:42.856Z,101994.88
2019-05-29T09:12:54.922Z,101991.11
2019-05-29T09:15:52.427Z,102000.11
2019-05-29T09:18:56.209Z,102003.30
2019-05-29T09:22:00.042Z,102005.78
2019-05-29T09:25:04.792Z,102012.45
2019-05-29T09:28:16.113Z,102022.91
2019-05-29T09:31:20.342Z,102017.61
2019-05-29T09:34:24.748Z,102011.67
2019-05-29T09:37:28.609Z,102014.13
2019-05-29T09:40:32.426Z,102012.70
2019-05-29T09:43:36.350Z,102015.08
2019-05-29T09:46:40.172Z,102018.03
2019-05-29T09:49:44.083Z,102013.55
2019-05-29T09:52:47.955Z,102023.59
2019-05-29T09:55:52.048Z,102026.04
2019-05-29T09:58:58.477Z,102027.72
2019-05-29T10:02:06.989Z,102022.17
2019-05-29T10:05:09.969Z,102030.31
2019-05-29T10:08:16.882Z,102034.36
2019-05-29T10:11:19.285Z,102035.98
2019-05-29T10:14:23.129Z,102033.87
2019-05-29T10:17:27.014Z,102036.60
2019-05-29T10:20:30.989Z,102032.70
2019-05-29T10:23:34.861Z,102038.16
2019-05-29T10:26:38.666Z,102038.98
2019-05-29T10:29:42.535Z,102038.98
2019-05-29T10:32:46.424Z,102031.07
2019-05-29T10:35:53.512Z,102029.48
2019-05-29T10:38:55.857Z,102038.41
2019-05-29T10:41:59.757Z,102052.20
2019-05-29T10:45:03.793Z,102048.45
2019-05-29T10:48:07.745Z,102043.87
2019-05-29T10:51:11.572Z,102049.55
2019-05-29T10:54:15.401Z,102050.06
2019-05-29T10:57:19.208Z,102056.47
2019-05-29T11:00:23.291Z,102043.59
2019-05-29T11:03:27.105Z,102038.57
2019-05-29T11:06:30.938Z,102044.03
2019-05-29T11:09:44.166Z,102052.91
2019-05-29T11:12:40.393Z,102045.14
2019-05-29T11:15:44.286Z,102052.58
2019-05-29T11:18:49.155Z,102047.17
2019-05-29T11:21:53.968Z,102050.39
2019-05-29T11:25:18.868Z,102045.98
2019-05-29T11:28:04.412Z,102039.95
2019-05-29T11:31:08.221Z,102043.31
2019-05-29T11:34:12.085Z,102043.17
2019-05-29T11:37:15.938Z,102052.97
2019-05-29T11:40:20.524Z,102051.27
2019-05-29T11:43:24.345Z,102056.48
2019-05-29T11:46:28.187Z,102057.77
2019-05-29T11:49:31.978Z,102057.48
2019-05-29T11:52:42.724Z,102059.94
2019-05-29T11:55:41.432Z,102065.52
2019-05-29T11:58:45.259Z,102058.30
2019-05-29T12:01:50.852Z,102056.16
2019-05-29T12:04:55.166Z,102062.34
2019-05-29T12:07:59.593Z,102070.64
2019-05-29T12:11:06.935Z,102071.76
2019-05-29T12:14:09.266Z,102070.05
2019-05-29T12:17:13.138Z,102078.22
2019-05-29T12:20:27.965Z,102086.25
2019-05-29T12:23:26.904Z,102085.96
2019-05-29T12:26:29.239Z,102087.84
2019-05-29T12:29:33.047Z,102095.38
2019-05-29T12:32:36.942Z,102085.86
2019-05-29T12:35:40.861Z,102091.86
2019-05-29T12:38:44.695Z,102098.83
2019-05-29T12:41:48.545Z,102091.75
2019-05-29T12:44:53.554Z,102097.08
2019-05-29T12:47:58.218Z,102090.89
2019-05-29T12:51:04.006Z,102087.47
2019-05-29T12:54:08.004Z,102085.53
2019-05-29T12:57:11.920Z,102090.47
2019-05-29T13:00:17.808Z,102094.64
2019-05-29T13:03:21.629Z,102082.22
2019-05-29T13:06:25.435Z,102084.81
2019-05-29T13:09:29.315Z,102086.27
2019-05-29T13:12:33.112Z,102086.30
2019-05-29T13:15:36.942Z,102088.59
2019-05-29T13:18:40.785Z,102088.19
2019-05-29T13:21:44.618Z,102090.75
2019-05-29T13:24:48.436Z,102082.92
2019-05-29T13:27:52.286Z,102086.50
2019-05-29T13:30:56.085Z,102086.89
2019-05-29T13:34:00.064Z,102083.84
2019-05-29T13:37:07.694Z,102084.05
2019-05-29T13:40:11.398Z,102093.20
2019-05-29T13:43:16.035Z,102091.36
2019-05-29T13:46:20.030Z,102079.71
2019-05-29T13:49:23.876Z,102088.26
2019-05-29T13:52:27.739Z,102087.49
2019-05-29T13:55:31.727Z,102087.53
2019-05-29T13:58:35.516Z,102085.58
2019-05-29T14:01:39.352Z,102079.78
2019-05-29T14:04:43.173Z,102077.03
2019-05-29T14:07:47.075Z,102082.53
2019-05-29T14:10:50.978Z,102079.02
2019-05-29T14:13:54.826Z,102070.43
2019-05-29T14:16:58.637Z,102078.02
2019-05-29T14:20:02.706Z,102077.83
2019-05-29T14:23:07.505Z,102075.73
2019-05-29T14:26:13.007Z,102074.75
2019-05-29T14:29:17.138Z,102079.00
2019-05-29T14:32:21.096Z,102078.68
2019-05-29T14:35:24.978Z,102083.89
2019-05-29T14:38:28.849Z,102083.16
2019-05-29T14:41:32.638Z,102073.33
2019-05-29T14:44:36.505Z,102087.13
2019-05-29T14:47:40.448Z,102086.44
2019-05-29T14:50:44.386Z,102086.67
2019-05-29T14:53:48.266Z,102086.88
2019-05-29T14:56:52.232Z,102090.50
2019-05-29T14:59:56.059Z,102095.39
2019-05-29T15:02:59.949Z,102099.19
2019-05-29T15:06:03.911Z,102111.89
2019-05-29T15:09:07.973Z,102099.36
2019-05-29T15:12:12.162Z,102091.95
2019-05-29T15:15:17.660Z,102091.36
2019-05-29T15:18:21.576Z,102101.16
2019-05-29T15:21:25.431Z,102105.11
2019-05-29T15:24:29.282Z,102102.27
2019-05-29T15:27:33.188Z,102086.94
2019-05-29T15:30:37.423Z,102105.78
2019-05-29T15:33:41.327Z,102103.05
2019-05-29T15:36:45.298Z,102106.61
2019-05-29T15:39:49.170Z,102094.98
2019-05-29T15:42:53.055Z,102106.49
2019-05-29T15:45:56.892Z,102098.16
2019-05-29T15:49:00.932Z,102100.75
2019-05-29T15:52:04.977Z,102101.83
2019-05-29T15:55:24.828Z,102105.59
2019-05-29T15:58:15.463Z,102102.62
2019-05-29T16:01:19.402Z,102097.36
2019-05-29T16:04:24.053Z,102108.16
2019-05-29T16:07:27.858Z,102097.61
2019-05-29T16:10:31.814Z,102105.77
2019-05-29T16:13:35.750Z,102092.34
2019-05-29T16:16:40.055Z,102094.02
2019-05-29T16:19:44.013Z,102088.47
2019-05-29T16:22:48.034Z,102083.61
2019-05-29T16:25:52.247Z,102092.89
2019-05-29T16:28:56.591Z,102085.80
2019-05-29T16:32:02.244Z,102083.02
2019-05-29T16:35:07.724Z,102090.66
2019-05-29T16:38:11.705Z,102081.55
2019-05-29T16:41:15.799Z,102088.39
2019-05-29T16:44:25.081Z,102085.20
2019-05-29T16:47:25.196Z,102085.16
2019-05-29T16:50:29.081Z,102084.30
2019-05-29T16:53:32.957Z,102087.56
2019-05-29T16:56:36.757Z,102084.88
2019-05-29T16:59:40.591Z,102088.34
2019-05-29T17:02:44.421Z,102082.00
2019-05-29T17:05:48.439Z,102084.10
2019-05-29T17:08:52.505Z,102082.28
2019-05-29T17:11:59.390Z,102084.06
2019-05-29T17:15:06.012Z,102085.59
2019-05-29T17:18:10.104Z,102077.77
2019-05-29T17:21:14.439Z,102080.09
2019-05-29T17:24:18.768Z,102084.20
2019-05-29T17:27:23.108Z,102085.54
2019-05-29T17:30:31.918Z,102087.05
2019-05-29T17:33:35.907Z,102082.95
2019-05-29T17:36:40.267Z,102083.53
2019-05-29T17:39:44.228Z,102082.96
2019-05-29T17:42:48.209Z,102083.50
2019-05-29T17:45:52.446Z,102084.46
2019-05-29T17:48:56.291Z,102086.19
2019-05-29T17:52:00.083Z,102081.70
2019-05-29T17:55:04.385Z,102079.56
2019-05-29T17:58:08.291Z,102078.41
2019-05-29T18:01:12.207Z,102073.88
2019-05-29T18:04:16.026Z,102074.67
2019-05-29T18:07:20.645Z,102069.18
2019-05-29T18:10:25.687Z,102075.16
2019-05-29T18:13:29.710Z,102069.11
2019-05-29T18:16:33.531Z,102064.59
2019-05-29T18:19:37.390Z,102063.48
2019-05-29T18:22:41.285Z,102066.28
2019-05-29T18:25:45.112Z,102059.63
2019-05-29T18:28:49.101Z,102057.94
2019-05-29T18:31:52.991Z,102063.05
2019-05-29T18:34:56.970Z,102054.78
2019-05-29T18:38:00.874Z,102052.67
2019-05-29T18:41:04.845Z,102058.98
2019-05-29T18:44:08.652Z,102052.88
2019-05-29T18:47:12.483Z,102057.81
2019-05-29T18:50:16.917Z,102053.88
2019-05-29T18:53:20.819Z,102053.96
2019-05-29T18:56:26.228Z,102046.92
2019-05-29T18:59:31.753Z,102050.08
2019-05-29T19:02:35.767Z,102052.34
2019-05-29T19:05:39.744Z,102049.33
2019-05-29T19:08:43.631Z,102056.55
2019-05-29T19:11:47.607Z,102053.67
2019-05-29T19:14:51.466Z,102053.81
2019-05-29T19:17:55.382Z,102049.94
2019-05-29T19:20:59.268Z,102055.45
2019-05-29T19:24:03.181Z,102056.53
2019-05-29T19:27:07.175Z,102051.32
2019-05-29T19:30:11.576Z,102056.89
2019-05-29T19:33:15.464Z,102059.79
2019-05-29T19:36:19.282Z,102059.95
2019-05-29T19:39:23.755Z,102066.30
2019-05-29T19:42:28.165Z,102068.27
2019-05-29T19:45:32.611Z,102070.16
2019-05-29T19:48:36.652Z,102069.41
2019-05-29T19:51:40.544Z,102071.22
2019-05-29T19:54:44.442Z,102070.02
2019-05-29T19:57:55.454Z,102070.59
2019-05-29T20:00:54.067Z,102073.34
2019-05-29T20:03:57.886Z,102070.77
2019-05-29T20:07:01.806Z,102075.70
2019-05-29T20:10:06.030Z,102073.55
2019-05-29T20:13:09.906Z,102069.56
2019-05-29T20:16:13.729Z,102070.50
2019-05-29T20:19:17.530Z,102073.70
2019-05-29T20:22:21.380Z,102067.59
2019-05-29T20:25:25.228Z,102072.98
2019-05-29T20:28:30.094Z,102077.87
2019-05-29T20:31:34.537Z,102070.86
2019-05-29T20:34:39.084Z,102069.16
2019-05-29T20:37:42.966Z,102064.34
2019-05-29T20:40:46.893Z,102063.08
2019-05-29T20:43:50.721Z,102061.38
2019-05-29T20:46:54.553Z,102060.95
2019-05-29T20:49:58.403Z,102063.17
2019-05-29T20:53:02.278Z,102065.83
2019-05-29T20:56:06.444Z,102067.16
2019-05-29T20:59:10.251Z,102066.28
2019-05-29T21:02:14.089Z,102065.08
2019-05-29T21:05:18.498Z,102062.85
2019-05-29T21:08:22.324Z,102059.73
2019-05-29T21:11:26.229Z,102054.02
2019-05-29T21:14:30.050Z,102059.80
2019-05-29T21:17:33.894Z,102058.05
2019-05-29T21:20:38.322Z,102051.44
2019-05-29T21:23:42.519Z,102049.75
2019-05-29T21:26:46.450Z,102054.66
2019-05-29T21:29:50.298Z,102062.61
2019-05-29T21:32:54.181Z,102060.84
2019-05-29T21:35:58.003Z,102052.06
2019-05-29T21:39:01.933Z,102038.38
2019-05-29T21:42:05.859Z,102037.07
2019-05-29T21:45:10.739Z,102034.44
2019-05-29T21:48:14.550Z,102021.18
2019-05-29T21:51:18.376Z,102025.16
2019-05-29T21:54:22.295Z,102024.73
2019-05-29T21:57:26.108Z,102017.66
2019-05-29T22:00:42.283Z,102026.92
2019-05-29T22:03:46.611Z,102021.64
2019-05-29T22:06:50.553Z,102017.23
2019-05-29T22:09:54.545Z,102015.86
2019-05-29T22:12:58.588Z,102017.64
2019-05-29T22:16:02.356Z,102015.00
2019-05-29T22:19:06.569Z,102011.88
2019-05-29T22:22:10.382Z,102014.09
2019-05-29T22:25:14.365Z,102014.55
2019-05-29T22:28:18.310Z,102013.66
2019-05-29T22:31:22.589Z,102017.64
2019-05-29T22:34:26.514Z,102010.57
2019-05-29T22:37:30.926Z,102010.59
2019-05-29T22:40:34.900Z,102007.98
2019-05-29T22:43:38.811Z,102002.22
2019-05-29T22:46:43.087Z,102003.55
2019-05-29T22:49:46.922Z,102001.39
2019-05-29T22:52:51.781Z,102004.94
2019-05-29T22:55:55.821Z,102000.53
2019-05-29T22:59:00.196Z,101998.80
2019-05-29T23:02:04.540Z,101991.77
2019-05-29T23:05:08.523Z,101998.86
2019-05-29T23:08:12.609Z,101995.30
2019-05-29T23:11:16.989Z,101988.73
2019-05-29T23:14:22.255Z,101987.83
2019-05-29T23:17:26.405Z,101988.69
2019-05-29T23:20:30.473Z,101985.61
2019-05-29T23:23:34.829Z,101986.04
2019-05-29T23:26:38.809Z,101982.05
2019-05-29T23:29:49.031Z,101979.39
2019-05-29T23:32:49.776Z,101975.42
2019-05-29T23:35:54.870Z,101969.23
2019-05-29T23:38:59.315Z,101967.05
2019-05-29T23:42:03.660Z,101960.45
2019-05-29T23:45:08.334Z,101957.81
2019-05-29T23:48:12.177Z,101953.87
2019-05-29T23:51:16.062Z,101948.55
2019-05-29T23:54:19.945Z,101949.00
2019-05-29T23:57:23.840Z,101945.48
